Legenda:
Basso (0-210)
Molto Alto (490 - 630)

Moderato (210 - 350)
Estremo (630 - 800)

Alto (350 - 490)
Molto estremo (800+)


 
203.62
Date Temp. (°C) Wind Speed (km/h) Rain (mm) RH Days Since Rain pwsFWI
La previsione è attiva (incluso oggi!), I valori sono sopra la linea rossa.
20/05/22 23.00 14.00 0.00 0.59 13 158.23
19/05/22 24.00 13.00 0.00 0.61 12 148.91
18/05/22 24.00 10.00 0.00 0.68 11 150.15
17/05/22 23.00 9.00 0.00 0.73 10 158.59
16/05/22 22.00 10.00 0.00 0.69 9 191.52
15/05/22 22.70 15.00 0.00 0.59 8 203.62
14/05/22 21.90 13.00 0.00 0.65 7 209.90
13/05/22 22.10 13.00 0.00 0.53 6 230.14
12/05/22 22.00 15.00 0.00 0.64 5 196.71
11/05/22 22.70 18.00 0.00 0.52 4 167.23
10/05/22 21.60 13.00 0.00 0.56 3 118.67
09/05/22 21.20 21.00 0.00 0.61 2 101.39
08/05/22 20.80 23.00 0.00 0.60 1 91.69
07/05/22 19.70 33.00 1.20 0.73 0 116.66
06/05/22 20.00 37.00 28.80 0.74 0 60.56
05/05/22 19.20 31.00 3.90 0.79 0 101.04
04/05/22 18.80 16.00 0.00 0.81 3 172.63
03/05/22 19.80 16.00 0.00 0.56 2 234.83
02/05/22 19.40 23.00 0.00 0.51 1 266.14
01/05/22 19.80 16.00 5.40 0.47 0 242.01
30/04/22 19.40 16.00 0.00 0.43 2 231.47
29/04/22 19.80 34.00 0.00 0.47 1 258.82
28/04/22 21.00 27.00 0.30 0.43 0 306.67
27/04/22 18.30 16.00 0.00 0.79 7 307.17
26/04/22 18.00 16.00 0.00 0.78 6 327.59
25/04/22 11.40 3.00 0.00 0.94 5 276.57
25/04/22 21.30 28.00 0.00 0.51 4 291.16
24/04/22 21.60 42.00 0.00 0.39 3 252.23
23/04/22 20.50 33.00 0.00 0.56 2 216.90
22/04/22 18.50 22.00 0.00 0.62 1 294.99
CumulusUtils Version 2.1.7 © Hans Rottier
Science background here. - NOTE: Behavioural testing still under way!
Prediction courtesy of https://www.yourweather.co.uk/